sensor_id;sensor_type;location;lat;lon;timestamp;P1;durP1;ratioP1;P2;durP2;ratioP2
81217;SDS011;70689;52.494;13.420;2023-07-09T00:00:16;4.38;;;3.05;;
81217;SDS011;70689;52.494;13.420;2023-07-09T00:02:44;5.88;;;3.40;;
81217;SDS011;70689;52.494;13.420;2023-07-09T00:05:14;4.85;;;3.20;;
81217;SDS011;70689;52.494;13.420;2023-07-09T00:07:41;5.80;;;3.25;;
81217;SDS011;70689;52.494;13.420;2023-07-09T00:10:15;5.35;;;3.30;;
81217;SDS011;70689;52.494;13.420;2023-07-09T00:12:45;7.35;;;3.58;;
81217;SDS011;70689;52.494;13.420;2023-07-09T00:15:12;5.93;;;3.10;;
81217;SDS011;70689;52.494;13.420;2023-07-09T00:17:41;6.82;;;3.25;;
81217;SDS011;70689;52.494;13.420;2023-07-09T00:20:10;5.22;;;3.33;;
81217;SDS011;70689;52.494;13.420;2023-07-09T00:22:39;6.57;;;3.33;;
81217;SDS011;70689;52.494;13.420;2023-07-09T00:25:05;5.72;;;3.28;;
81217;SDS011;70689;52.494;13.420;2023-07-09T00:27:33;5.75;;;3.30;;
81217;SDS011;70689;52.494;13.420;2023-07-09T00:29:58;5.75;;;3.40;;
81217;SDS011;70689;52.494;13.420;2023-07-09T00:32:24;6.53;;;3.40;;
81217;SDS011;70689;52.494;13.420;2023-07-09T00:34:51;5.40;;;3.42;;
81217;SDS011;70689;52.494;13.420;2023-07-09T00:37:19;5.85;;;3.95;;
81217;SDS011;70689;52.494;13.420;2023-07-09T00:39:50;5.88;;;3.45;;
81217;SDS011;70689;52.494;13.420;2023-07-09T00:42:17;4.10;;;3.40;;
81217;SDS011;70689;52.494;13.420;2023-07-09T00:44:45;5.22;;;3.35;;
81217;SDS011;70689;52.494;13.420;2023-07-09T00:47:15;6.40;;;3.50;;
81217;SDS011;70689;52.494;13.420;2023-07-09T00:49:59;4.03;;;3.15;;
81217;SDS011;70689;52.494;13.420;2023-07-09T00:52:38;4.80;;;3.15;;
81217;SDS011;70689;52.494;13.420;2023-07-09T00:55:11;6.95;;;3.10;;
81217;SDS011;70689;52.494;13.420;2023-07-09T00:57:41;4.75;;;3.00;;
81217;SDS011;70689;52.494;13.420;2023-07-09T01:00:11;5.55;;;3.25;;
81217;SDS011;70689;52.494;13.420;2023-07-09T01:02:41;6.88;;;3.67;;
81217;SDS011;70689;52.494;13.420;2023-07-09T01:05:13;6.15;;;4.40;;
81217;SDS011;70689;52.494;13.420;2023-07-09T01:07:42;4.32;;;3.20;;
81217;SDS011;70689;52.494;13.420;2023-07-09T01:10:11;5.28;;;3.67;;
81217;SDS011;70689;52.494;13.420;2023-07-09T01:12:43;4.85;;;3.30;;
81217;SDS011;70689;52.494;13.420;2023-07-09T01:15:11;5.47;;;3.47;;
81217;SDS011;70689;52.494;13.420;2023-07-09T01:17:37;7.70;;;3.50;;
81217;SDS011;70689;52.494;13.420;2023-07-09T01:20:03;5.13;;;3.22;;
81217;SDS011;70689;52.494;13.420;2023-07-09T01:22:32;5.63;;;3.70;;
81217;SDS011;70689;52.494;13.420;2023-07-09T01:24:59;7.07;;;3.10;;
81217;SDS011;70689;52.494;13.420;2023-07-09T01:27:29;3.72;;;3.00;;
81217;SDS011;70689;52.494;13.420;2023-07-09T01:30:02;8.23;;;3.20;;
81217;SDS011;70689;52.494;13.420;2023-07-09T01:32:59;4.78;;;3.20;;
81217;SDS011;70689;52.494;13.420;2023-07-09T01:35:26;4.97;;;3.40;;
81217;SDS011;70689;52.494;13.420;2023-07-09T01:37:54;4.18;;;3.40;;
81217;SDS011;70689;52.494;13.420;2023-07-09T01:40:21;5.97;;;3.45;;
81217;SDS011;70689;52.494;13.420;2023-07-09T01:42:49;6.05;;;3.17;;
81217;SDS011;70689;52.494;13.420;2023-07-09T01:45:16;4.38;;;3.10;;
81217;SDS011;70689;52.494;13.420;2023-07-09T01:47:42;4.57;;;3.28;;
81217;SDS011;70689;52.494;13.420;2023-07-09T01:50:09;5.35;;;3.42;;
81217;SDS011;70689;52.494;13.420;2023-07-09T01:52:36;7.57;;;3.35;;
81217;SDS011;70689;52.494;13.420;2023-07-09T01:55:06;6.30;;;3.50;;
81217;SDS011;70689;52.494;13.420;2023-07-09T01:57:34;6.45;;;3.70;;
81217;SDS011;70689;52.494;13.420;2023-07-09T02:00:06;6.47;;;4.05;;
81217;SDS011;70689;52.494;13.420;2023-07-09T02:02:38;7.25;;;3.70;;
81217;SDS011;70689;52.494;13.420;2023-07-09T02:05:07;5.95;;;4.00;;
81217;SDS011;70689;52.494;13.420;2023-07-09T02:07:34;5.85;;;3.92;;
81217;SDS011;70689;52.494;13.420;2023-07-09T02:10:00;9.25;;;3.95;;
81217;SDS011;70689;52.494;13.420;2023-07-09T02:12:26;6.25;;;3.88;;
81217;SDS011;70689;52.494;13.420;2023-07-09T02:14:51;5.13;;;3.50;;
81217;SDS011;70689;52.494;13.420;2023-07-09T02:17:17;8.00;;;3.95;;
81217;SDS011;70689;52.494;13.420;2023-07-09T02:19:43;10.20;;;3.70;;
81217;SDS011;70689;52.494;13.420;2023-07-09T02:22:09;6.43;;;3.83;;
81217;SDS011;70689;52.494;13.420;2023-07-09T02:24:35;3.88;;;3.35;;
81217;SDS011;70689;52.494;13.420;2023-07-09T02:27:02;7.88;;;3.83;;
81217;SDS011;70689;52.494;13.420;2023-07-09T02:29:30;8.80;;;4.05;;
81217;SDS011;70689;52.494;13.420;2023-07-09T02:31:57;6.35;;;3.70;;
81217;SDS011;70689;52.494;13.420;2023-07-09T02:34:25;6.57;;;3.90;;
81217;SDS011;70689;52.494;13.420;2023-07-09T02:36:54;6.75;;;3.75;;
81217;SDS011;70689;52.494;13.420;2023-07-09T02:39:22;7.65;;;4.93;;
81217;SDS011;70689;52.494;13.420;2023-07-09T02:41:48;5.53;;;3.80;;
81217;SDS011;70689;52.494;13.420;2023-07-09T02:44:15;5.97;;;4.15;;
81217;SDS011;70689;52.494;13.420;2023-07-09T02:46:41;7.80;;;3.85;;
81217;SDS011;70689;52.494;13.420;2023-07-09T02:49:09;7.47;;;4.30;;
81217;SDS011;70689;52.494;13.420;2023-07-09T02:51:36;5.55;;;3.90;;
81217;SDS011;70689;52.494;13.420;2023-07-09T02:54:02;5.60;;;3.90;;
81217;SDS011;70689;52.494;13.420;2023-07-09T02:56:29;5.53;;;3.83;;
81217;SDS011;70689;52.494;13.420;2023-07-09T02:58:55;5.35;;;3.95;;
81217;SDS011;70689;52.494;13.420;2023-07-09T03:01:21;5.55;;;3.55;;
81217;SDS011;70689;52.494;13.420;2023-07-09T03:03:50;4.32;;;3.50;;
81217;SDS011;70689;52.494;13.420;2023-07-09T03:06:17;4.65;;;3.63;;
81217;SDS011;70689;52.494;13.420;2023-07-09T03:08:44;7.57;;;3.88;;
81217;SDS011;70689;52.494;13.420;2023-07-09T03:11:10;4.93;;;3.78;;
81217;SDS011;70689;52.494;13.420;2023-07-09T03:13:37;5.28;;;3.70;;
81217;SDS011;70689;52.494;13.420;2023-07-09T03:16:03;7.95;;;3.70;;
81217;SDS011;70689;52.494;13.420;2023-07-09T03:18:28;6.22;;;3.58;;
81217;SDS011;70689;52.494;13.420;2023-07-09T03:20:54;8.60;;;3.90;;
81217;SDS011;70689;52.494;13.420;2023-07-09T03:23:20;6.82;;;4.18;;
81217;SDS011;70689;52.494;13.420;2023-07-09T03:25:46;4.90;;;3.90;;
81217;SDS011;70689;52.494;13.420;2023-07-09T03:28:13;6.22;;;4.05;;
81217;SDS011;70689;52.494;13.420;2023-07-09T03:30:40;6.72;;;3.78;;
81217;SDS011;70689;52.494;13.420;2023-07-09T03:33:09;5.60;;;3.65;;
81217;SDS011;70689;52.494;13.420;2023-07-09T03:35:36;7.80;;;3.65;;
81217;SDS011;70689;52.494;13.420;2023-07-09T03:38:03;9.20;;;3.70;;
81217;SDS011;70689;52.494;13.420;2023-07-09T03:40:29;5.47;;;3.50;;
81217;SDS011;70689;52.494;13.420;2023-07-09T03:42:55;7.28;;;3.80;;
81217;SDS011;70689;52.494;13.420;2023-07-09T03:45:21;7.15;;;4.03;;
81217;SDS011;70689;52.494;13.420;2023-07-09T03:47:47;7.10;;;3.85;;
81217;SDS011;70689;52.494;13.420;2023-07-09T03:50:13;4.53;;;3.90;;
81217;SDS011;70689;52.494;13.420;2023-07-09T03:52:39;5.90;;;3.80;;
81217;SDS011;70689;52.494;13.420;2023-07-09T03:55:04;6.65;;;3.92;;
81217;SDS011;70689;52.494;13.420;2023-07-09T03:57:31;6.55;;;3.90;;
81217;SDS011;70689;52.494;13.420;2023-07-09T03:59:56;7.90;;;3.85;;
81217;SDS011;70689;52.494;13.420;2023-07-09T04:02:22;5.10;;;3.80;;
81217;SDS011;70689;52.494;13.420;2023-07-09T04:04:48;5.10;;;3.80;;
81217;SDS011;70689;52.494;13.420;2023-07-09T04:07:14;4.82;;;3.65;;
81217;SDS011;70689;52.494;13.420;2023-07-09T04:09:40;9.20;;;4.10;;
81217;SDS011;70689;52.494;13.420;2023-07-09T04:12:06;5.63;;;3.70;;
81217;SDS011;70689;52.494;13.420;2023-07-09T04:14:32;5.53;;;3.65;;
81217;SDS011;70689;52.494;13.420;2023-07-09T04:16:58;6.72;;;3.90;;
81217;SDS011;70689;52.494;13.420;2023-07-09T04:19:23;4.97;;;3.70;;
81217;SDS011;70689;52.494;13.420;2023-07-09T04:21:49;6.97;;;3.80;;
81217;SDS011;70689;52.494;13.420;2023-07-09T04:24:19;4.90;;;3.53;;
81217;SDS011;70689;52.494;13.420;2023-07-09T04:26:45;4.60;;;3.60;;
81217;SDS011;70689;52.494;13.420;2023-07-09T04:29:11;4.47;;;3.28;;
81217;SDS011;70689;52.494;13.420;2023-07-09T04:31:38;6.57;;;4.05;;
81217;SDS011;70689;52.494;13.420;2023-07-09T04:34:04;5.05;;;3.42;;
81217;SDS011;70689;52.494;13.420;2023-07-09T04:36:31;8.90;;;3.95;;
81217;SDS011;70689;52.494;13.420;2023-07-09T04:38:57;4.40;;;3.60;;
81217;SDS011;70689;52.494;13.420;2023-07-09T04:41:23;5.05;;;3.80;;
81217;SDS011;70689;52.494;13.420;2023-07-09T04:43:49;17.00;;;3.95;;
81217;SDS011;70689;52.494;13.420;2023-07-09T04:46:14;7.63;;;3.72;;
81217;SDS011;70689;52.494;13.420;2023-07-09T04:48:40;11.35;;;3.90;;
81217;SDS011;70689;52.494;13.420;2023-07-09T04:51:06;6.40;;;3.70;;
81217;SDS011;70689;52.494;13.420;2023-07-09T04:53:31;4.30;;;3.53;;
81217;SDS011;70689;52.494;13.420;2023-07-09T04:55:57;7.25;;;3.65;;
81217;SDS011;70689;52.494;13.420;2023-07-09T04:58:23;6.05;;;3.50;;
81217;SDS011;70689;52.494;13.420;2023-07-09T05:00:49;6.35;;;3.70;;
81217;SDS011;70689;52.494;13.420;2023-07-09T05:03:20;6.00;;;3.90;;
81217;SDS011;70689;52.494;13.420;2023-07-09T05:05:46;5.72;;;3.53;;
81217;SDS011;70689;52.494;13.420;2023-07-09T05:08:12;4.38;;;3.47;;
81217;SDS011;70689;52.494;13.420;2023-07-09T05:10:42;4.22;;;3.58;;
81217;SDS011;70689;52.494;13.420;2023-07-09T05:13:12;6.15;;;3.72;;
81217;SDS011;70689;52.494;13.420;2023-07-09T05:15:42;5.22;;;3.55;;
81217;SDS011;70689;52.494;13.420;2023-07-09T05:18:10;5.55;;;3.40;;
81217;SDS011;70689;52.494;13.420;2023-07-09T05:20:39;5.35;;;3.50;;
81217;SDS011;70689;52.494;13.420;2023-07-09T05:23:06;5.70;;;3.40;;
81217;SDS011;70689;52.494;13.420;2023-07-09T05:25:32;5.07;;;3.95;;
81217;SDS011;70689;52.494;13.420;2023-07-09T05:27:58;6.35;;;3.55;;
81217;SDS011;70689;52.494;13.420;2023-07-09T05:30:24;5.75;;;3.38;;
81217;SDS011;70689;52.494;13.420;2023-07-09T05:32:50;6.00;;;3.60;;
81217;SDS011;70689;52.494;13.420;2023-07-09T05:35:21;7.47;;;3.42;;
81217;SDS011;70689;52.494;13.420;2023-07-09T05:37:46;5.80;;;3.65;;
81217;SDS011;70689;52.494;13.420;2023-07-09T05:40:12;12.40;;;5.85;;
81217;SDS011;70689;52.494;13.420;2023-07-09T05:42:38;4.72;;;3.70;;
81217;SDS011;70689;52.494;13.420;2023-07-09T05:45:04;6.65;;;3.70;;
81217;SDS011;70689;52.494;13.420;2023-07-09T05:47:30;5.03;;;3.40;;
81217;SDS011;70689;52.494;13.420;2023-07-09T05:49:56;5.20;;;3.78;;
81217;SDS011;70689;52.494;13.420;2023-07-09T05:52:22;4.90;;;3.60;;
81217;SDS011;70689;52.494;13.420;2023-07-09T05:54:49;4.40;;;3.40;;
81217;SDS011;70689;52.494;13.420;2023-07-09T05:57:16;5.57;;;3.63;;
81217;SDS011;70689;52.494;13.420;2023-07-09T05:59:42;6.18;;;3.58;;
81217;SDS011;70689;52.494;13.420;2023-07-09T06:02:11;8.25;;;3.47;;
81217;SDS011;70689;52.494;13.420;2023-07-09T06:04:38;4.85;;;3.30;;
81217;SDS011;70689;52.494;13.420;2023-07-09T06:07:04;5.32;;;3.30;;
81217;SDS011;70689;52.494;13.420;2023-07-09T06:09:30;5.15;;;3.45;;
81217;SDS011;70689;52.494;13.420;2023-07-09T06:11:56;4.95;;;3.70;;
81217;SDS011;70689;52.494;13.420;2023-07-09T06:14:22;7.05;;;3.72;;
81217;SDS011;70689;52.494;13.420;2023-07-09T06:16:48;5.95;;;3.53;;
81217;SDS011;70689;52.494;13.420;2023-07-09T06:19:14;6.32;;;3.85;;
81217;SDS011;70689;52.494;13.420;2023-07-09T06:21:40;5.68;;;3.40;;
81217;SDS011;70689;52.494;13.420;2023-07-09T06:24:06;5.38;;;3.55;;
81217;SDS011;70689;52.494;13.420;2023-07-09T06:26:33;6.68;;;3.70;;
81217;SDS011;70689;52.494;13.420;2023-07-09T06:28:59;6.35;;;4.00;;
81217;SDS011;70689;52.494;13.420;2023-07-09T06:31:25;5.35;;;3.60;;
81217;SDS011;70689;52.494;13.420;2023-07-09T06:33:51;4.53;;;3.70;;
81217;SDS011;70689;52.494;13.420;2023-07-09T06:36:17;5.45;;;3.60;;
81217;SDS011;70689;52.494;13.420;2023-07-09T06:38:43;4.68;;;3.80;;
81217;SDS011;70689;52.494;13.420;2023-07-09T06:41:09;6.80;;;3.65;;
81217;SDS011;70689;52.494;13.420;2023-07-09T06:43:35;5.03;;;4.22;;
81217;SDS011;70689;52.494;13.420;2023-07-09T06:46:04;6.18;;;3.72;;
81217;SDS011;70689;52.494;13.420;2023-07-09T06:48:30;4.75;;;3.60;;
81217;SDS011;70689;52.494;13.420;2023-07-09T06:50:57;7.43;;;3.63;;
81217;SDS011;70689;52.494;13.420;2023-07-09T06:53:24;5.43;;;3.55;;
81217;SDS011;70689;52.494;13.420;2023-07-09T06:55:50;6.50;;;3.70;;
81217;SDS011;70689;52.494;13.420;2023-07-09T06:58:20;6.90;;;3.80;;
81217;SDS011;70689;52.494;13.420;2023-07-09T07:00:57;6.10;;;3.20;;
81217;SDS011;70689;52.494;13.420;2023-07-09T07:03:23;5.93;;;3.80;;
81217;SDS011;70689;52.494;13.420;2023-07-09T07:05:50;5.22;;;3.80;;
81217;SDS011;70689;52.494;13.420;2023-07-09T07:08:19;5.88;;;3.53;;
81217;SDS011;70689;52.494;13.420;2023-07-09T07:10:48;6.28;;;3.55;;
81217;SDS011;70689;52.494;13.420;2023-07-09T07:13:14;7.68;;;3.85;;
81217;SDS011;70689;52.494;13.420;2023-07-09T07:15:40;5.05;;;3.70;;
81217;SDS011;70689;52.494;13.420;2023-07-09T07:18:07;5.40;;;3.75;;
81217;SDS011;70689;52.494;13.420;2023-07-09T07:20:33;4.57;;;3.55;;
81217;SDS011;70689;52.494;13.420;2023-07-09T07:22:59;5.35;;;3.90;;
81217;SDS011;70689;52.494;13.420;2023-07-09T07:25:25;4.95;;;3.60;;
81217;SDS011;70689;52.494;13.420;2023-07-09T07:27:51;6.95;;;3.85;;
81217;SDS011;70689;52.494;13.420;2023-07-09T07:30:17;7.10;;;3.90;;
81217;SDS011;70689;52.494;13.420;2023-07-09T07:32:44;4.80;;;3.70;;
81217;SDS011;70689;52.494;13.420;2023-07-09T07:35:11;4.55;;;3.58;;
81217;SDS011;70689;52.494;13.420;2023-07-09T07:37:38;7.63;;;5.65;;
81217;SDS011;70689;52.494;13.420;2023-07-09T07:40:08;4.45;;;3.50;;
81217;SDS011;70689;52.494;13.420;2023-07-09T07:42:34;5.50;;;3.95;;
81217;SDS011;70689;52.494;13.420;2023-07-09T07:45:00;5.15;;;3.78;;
81217;SDS011;70689;52.494;13.420;2023-07-09T07:47:27;4.57;;;3.70;;
81217;SDS011;70689;52.494;13.420;2023-07-09T07:49:53;8.65;;;3.85;;
81217;SDS011;70689;52.494;13.420;2023-07-09T07:52:18;5.40;;;4.47;;
81217;SDS011;70689;52.494;13.420;2023-07-09T07:54:44;6.97;;;4.43;;
81217;SDS011;70689;52.494;13.420;2023-07-09T07:57:10;4.68;;;3.88;;
81217;SDS011;70689;52.494;13.420;2023-07-09T07:59:37;7.88;;;3.40;;
81217;SDS011;70689;52.494;13.420;2023-07-09T08:02:03;5.78;;;3.55;;
81217;SDS011;70689;52.494;13.420;2023-07-09T08:04:31;6.43;;;3.63;;
81217;SDS011;70689;52.494;13.420;2023-07-09T08:06:57;4.55;;;3.78;;
81217;SDS011;70689;52.494;13.420;2023-07-09T08:09:24;4.93;;;3.50;;
81217;SDS011;70689;52.494;13.420;2023-07-09T08:11:50;5.35;;;4.10;;
81217;SDS011;70689;52.494;13.420;2023-07-09T08:14:16;6.35;;;3.47;;
81217;SDS011;70689;52.494;13.420;2023-07-09T08:16:42;7.43;;;4.05;;
81217;SDS011;70689;52.494;13.420;2023-07-09T08:19:08;6.35;;;3.78;;
81217;SDS011;70689;52.494;13.420;2023-07-09T08:21:33;7.60;;;3.78;;
81217;SDS011;70689;52.494;13.420;2023-07-09T08:23:59;9.35;;;3.90;;
81217;SDS011;70689;52.494;13.420;2023-07-09T08:26:25;4.25;;;3.40;;
81217;SDS011;70689;52.494;13.420;2023-07-09T08:28:51;6.15;;;3.88;;
81217;SDS011;70689;52.494;13.420;2023-07-09T08:31:16;4.35;;;3.35;;
81217;SDS011;70689;52.494;13.420;2023-07-09T08:33:42;5.88;;;3.70;;
81217;SDS011;70689;52.494;13.420;2023-07-09T08:36:08;4.50;;;3.70;;
81217;SDS011;70689;52.494;13.420;2023-07-09T08:38:34;4.85;;;3.85;;
81217;SDS011;70689;52.494;13.420;2023-07-09T08:41:01;4.05;;;3.47;;
81217;SDS011;70689;52.494;13.420;2023-07-09T08:49:22;5.25;;;3.60;;
81217;SDS011;70689;52.494;13.420;2023-07-09T08:51:55;6.43;;;3.45;;
81217;SDS011;70689;52.494;13.420;2023-07-09T08:54:26;6.18;;;3.50;;
81217;SDS011;70689;52.494;13.420;2023-07-09T08:56:58;5.80;;;3.85;;
81217;SDS011;70689;52.494;13.420;2023-07-09T08:59:29;4.07;;;3.45;;
81217;SDS011;70689;52.494;13.420;2023-07-09T09:01:56;6.68;;;3.65;;
81217;SDS011;70689;52.494;13.420;2023-07-09T09:04:28;4.60;;;3.22;;
81217;SDS011;70689;52.494;13.420;2023-07-09T09:07:07;4.47;;;3.53;;
81217;SDS011;70689;52.494;13.420;2023-07-09T09:09:57;4.82;;;3.63;;
81217;SDS011;70689;52.494;13.420;2023-07-09T09:12:36;7.43;;;3.78;;
81217;SDS011;70689;52.494;13.420;2023-07-09T09:15:13;4.50;;;3.53;;
81217;SDS011;70689;52.494;13.420;2023-07-09T09:17:52;6.55;;;3.60;;
81217;SDS011;70689;52.494;13.420;2023-07-09T09:20:34;8.40;;;3.88;;
81217;SDS011;70689;52.494;13.420;2023-07-09T09:25:32;5.63;;;3.45;;
81217;SDS011;70689;52.494;13.420;2023-07-09T09:28:00;6.22;;;3.55;;
81217;SDS011;70689;52.494;13.420;2023-07-09T09:30:26;6.70;;;3.60;;
81217;SDS011;70689;52.494;13.420;2023-07-09T09:32:54;5.43;;;3.40;;
81217;SDS011;70689;52.494;13.420;2023-07-09T09:35:26;4.63;;;3.70;;
81217;SDS011;70689;52.494;13.420;2023-07-09T09:37:58;4.03;;;3.40;;
81217;SDS011;70689;52.494;13.420;2023-07-09T09:40:25;5.50;;;3.38;;
81217;SDS011;70689;52.494;13.420;2023-07-09T09:42:53;3.40;;;3.10;;
81217;SDS011;70689;52.494;13.420;2023-07-09T09:45:24;6.43;;;3.78;;
81217;SDS011;70689;52.494;13.420;2023-07-09T09:47:57;6.00;;;3.38;;
81217;SDS011;70689;52.494;13.420;2023-07-09T09:50:24;5.07;;;3.60;;
81217;SDS011;70689;52.494;13.420;2023-07-09T09:52:53;3.47;;;3.13;;
81217;SDS011;70689;52.494;13.420;2023-07-09T09:55:20;7.30;;;3.65;;
81217;SDS011;70689;52.494;13.420;2023-07-09T09:57:52;4.20;;;3.20;;
81217;SDS011;70689;52.494;13.420;2023-07-09T10:00:21;4.65;;;3.22;;
81217;SDS011;70689;52.494;13.420;2023-07-09T10:02:50;4.88;;;3.60;;
81217;SDS011;70689;52.494;13.420;2023-07-09T10:05:21;7.20;;;3.50;;
81217;SDS011;70689;52.494;13.420;2023-07-09T10:07:59;4.88;;;3.30;;
81217;SDS011;70689;52.494;13.420;2023-07-09T10:10:32;5.28;;;3.45;;
81217;SDS011;70689;52.494;13.420;2023-07-09T10:13:00;5.25;;;4.75;;
81217;SDS011;70689;52.494;13.420;2023-07-09T10:16:07;5.47;;;3.35;;
81217;SDS011;70689;52.494;13.420;2023-07-09T10:27:00;4.72;;;3.50;;
81217;SDS011;70689;52.494;13.420;2023-07-09T10:40:47;4.57;;;3.95;;
81217;SDS011;70689;52.494;13.420;2023-07-09T10:43:19;6.55;;;3.60;;
81217;SDS011;70689;52.494;13.420;2023-07-09T10:46:12;5.68;;;3.60;;
81217;SDS011;70689;52.494;13.420;2023-07-09T10:48:44;5.50;;;3.58;;
81217;SDS011;70689;52.494;13.420;2023-07-09T10:53:51;6.68;;;3.70;;
81217;SDS011;70689;52.494;13.420;2023-07-09T10:56:26;4.68;;;3.50;;
81217;SDS011;70689;52.494;13.420;2023-07-09T10:59:10;4.88;;;3.67;;
81217;SDS011;70689;52.494;13.420;2023-07-09T11:02:19;4.13;;;3.72;;
81217;SDS011;70689;52.494;13.420;2023-07-09T11:04:52;5.07;;;3.55;;
81217;SDS011;70689;52.494;13.420;2023-07-09T11:10:14;4.82;;;3.42;;
81217;SDS011;70689;52.494;13.420;2023-07-09T11:12:50;4.72;;;3.50;;
81217;SDS011;70689;52.494;13.420;2023-07-09T11:15:40;4.45;;;3.60;;
81217;SDS011;70689;52.494;13.420;2023-07-09T11:18:10;5.40;;;3.38;;
81217;SDS011;70689;52.494;13.420;2023-07-09T11:20:42;4.70;;;3.40;;
81217;SDS011;70689;52.494;13.420;2023-07-09T11:23:19;3.88;;;3.30;;
81217;SDS011;70689;52.494;13.420;2023-07-09T11:25:47;4.72;;;3.60;;
81217;SDS011;70689;52.494;13.420;2023-07-09T11:28:32;4.50;;;4.00;;
81217;SDS011;70689;52.494;13.420;2023-07-09T11:31:06;4.43;;;3.20;;
81217;SDS011;70689;52.494;13.420;2023-07-09T11:33:34;4.85;;;3.45;;
81217;SDS011;70689;52.494;13.420;2023-07-09T11:36:10;4.53;;;3.90;;
81217;SDS011;70689;52.494;13.420;2023-07-09T11:38:44;5.68;;;4.63;;
81217;SDS011;70689;52.494;13.420;2023-07-09T11:43:49;6.35;;;4.38;;
81217;SDS011;70689;52.494;13.420;2023-07-09T11:46:17;5.97;;;4.90;;
81217;SDS011;70689;52.494;13.420;2023-07-09T11:48:46;5.90;;;4.30;;
81217;SDS011;70689;52.494;13.420;2023-07-09T11:51:16;5.78;;;4.55;;
81217;SDS011;70689;52.494;13.420;2023-07-09T11:53:46;7.45;;;5.57;;
81217;SDS011;70689;52.494;13.420;2023-07-09T11:56:18;5.23;;;4.73;;
81217;SDS011;70689;52.494;13.420;2023-07-09T11:58:49;6.45;;;5.00;;
81217;SDS011;70689;52.494;13.420;2023-07-09T12:01:18;7.45;;;6.10;;
81217;SDS011;70689;52.494;13.420;2023-07-09T12:03:47;6.63;;;5.75;;
81217;SDS011;70689;52.494;13.420;2023-07-09T12:08:47;7.75;;;6.97;;
81217;SDS011;70689;52.494;13.420;2023-07-09T12:11:18;10.02;;;6.60;;
81217;SDS011;70689;52.494;13.420;2023-07-09T12:13:52;6.75;;;6.05;;
81217;SDS011;70689;52.494;13.420;2023-07-09T12:18:51;7.38;;;5.95;;
81217;SDS011;70689;52.494;13.420;2023-07-09T12:21:17;7.25;;;5.95;;
81217;SDS011;70689;52.494;13.420;2023-07-09T12:23:44;7.75;;;5.22;;
81217;SDS011;70689;52.494;13.420;2023-07-09T12:26:11;7.07;;;5.40;;
81217;SDS011;70689;52.494;13.420;2023-07-09T12:28:40;7.72;;;5.32;;
81217;SDS011;70689;52.494;13.420;2023-07-09T12:31:10;6.72;;;5.80;;
81217;SDS011;70689;52.494;13.420;2023-07-09T12:33:45;7.80;;;5.50;;
81217;SDS011;70689;52.494;13.420;2023-07-09T12:36:16;7.68;;;4.93;;
81217;SDS011;70689;52.494;13.420;2023-07-09T12:38:44;6.63;;;4.68;;
81217;SDS011;70689;52.494;13.420;2023-07-09T12:41:16;7.10;;;5.43;;
81217;SDS011;70689;52.494;13.420;2023-07-09T12:46:09;5.55;;;4.50;;
81217;SDS011;70689;52.494;13.420;2023-07-09T12:48:35;9.73;;;4.30;;
81217;SDS011;70689;52.494;13.420;2023-07-09T12:51:01;12.35;;;4.70;;
81217;SDS011;70689;52.494;13.420;2023-07-09T12:53:33;5.88;;;4.30;;
81217;SDS011;70689;52.494;13.420;2023-07-09T12:55:59;8.55;;;4.65;;
81217;SDS011;70689;52.494;13.420;2023-07-09T12:58:31;6.68;;;4.70;;
81217;SDS011;70689;52.494;13.420;2023-07-09T13:00:59;6.45;;;5.20;;
81217;SDS011;70689;52.494;13.420;2023-07-09T13:06:00;4.68;;;4.18;;
81217;SDS011;70689;52.494;13.420;2023-07-09T13:08:32;5.78;;;4.35;;
81217;SDS011;70689;52.494;13.420;2023-07-09T13:11:14;7.00;;;4.80;;
81217;SDS011;70689;52.494;13.420;2023-07-09T13:13:41;6.45;;;4.93;;
81217;SDS011;70689;52.494;13.420;2023-07-09T13:16:06;6.00;;;4.88;;
81217;SDS011;70689;52.494;13.420;2023-07-09T13:18:32;8.38;;;4.60;;
81217;SDS011;70689;52.494;13.420;2023-07-09T13:20:58;5.22;;;4.57;;
81217;SDS011;70689;52.494;13.420;2023-07-09T13:23:29;5.25;;;4.50;;
81217;SDS011;70689;52.494;13.420;2023-07-09T13:25:57;6.20;;;4.85;;
81217;SDS011;70689;52.494;13.420;2023-07-09T13:28:30;9.40;;;4.60;;
81217;SDS011;70689;52.494;13.420;2023-07-09T13:30:57;7.38;;;5.40;;
81217;SDS011;70689;52.494;13.420;2023-07-09T13:33:35;6.22;;;4.50;;
81217;SDS011;70689;52.494;13.420;2023-07-09T13:36:02;5.90;;;4.63;;
81217;SDS011;70689;52.494;13.420;2023-07-09T13:38:28;6.93;;;4.68;;
81217;SDS011;70689;52.494;13.420;2023-07-09T13:40:55;6.50;;;4.20;;
81217;SDS011;70689;52.494;13.420;2023-07-09T13:43:28;5.68;;;4.68;;
81217;SDS011;70689;52.494;13.420;2023-07-09T13:45:56;5.00;;;4.43;;
81217;SDS011;70689;52.494;13.420;2023-07-09T13:48:22;8.18;;;4.40;;
81217;SDS011;70689;52.494;13.420;2023-07-09T13:50:50;5.38;;;4.28;;
81217;SDS011;70689;52.494;13.420;2023-07-09T13:53:21;5.22;;;4.20;;
81217;SDS011;70689;52.494;13.420;2023-07-09T13:58:16;5.65;;;4.50;;
81217;SDS011;70689;52.494;13.420;2023-07-09T14:00:44;6.35;;;4.88;;
81217;SDS011;70689;52.494;13.420;2023-07-09T14:03:15;6.70;;;4.78;;
81217;SDS011;70689;52.494;13.420;2023-07-09T14:05:43;9.10;;;4.82;;
81217;SDS011;70689;52.494;13.420;2023-07-09T14:08:11;6.13;;;5.03;;
81217;SDS011;70689;52.494;13.420;2023-07-09T14:10:36;5.88;;;4.40;;
81217;SDS011;70689;52.494;13.420;2023-07-09T14:13:02;6.05;;;4.50;;
81217;SDS011;70689;52.494;13.420;2023-07-09T14:15:29;5.55;;;4.20;;
81217;SDS011;70689;52.494;13.420;2023-07-09T14:17:54;7.20;;;4.50;;
81217;SDS011;70689;52.494;13.420;2023-07-09T14:20:21;7.18;;;4.97;;
81217;SDS011;70689;52.494;13.420;2023-07-09T14:22:48;7.18;;;4.90;;
81217;SDS011;70689;52.494;13.420;2023-07-09T14:25:21;8.55;;;4.85;;
81217;SDS011;70689;52.494;13.420;2023-07-09T14:27:49;7.68;;;4.57;;
81217;SDS011;70689;52.494;13.420;2023-07-09T14:30:17;5.72;;;4.63;;
81217;SDS011;70689;52.494;13.420;2023-07-09T14:32:45;4.85;;;4.20;;
81217;SDS011;70689;52.494;13.420;2023-07-09T14:35:22;6.50;;;4.45;;
81217;SDS011;70689;52.494;13.420;2023-07-09T14:37:50;5.25;;;4.03;;
81217;SDS011;70689;52.494;13.420;2023-07-09T14:40:18;6.43;;;4.60;;
81217;SDS011;70689;52.494;13.420;2023-07-09T14:42:45;5.95;;;4.57;;
81217;SDS011;70689;52.494;13.420;2023-07-09T14:45:16;7.05;;;4.32;;
81217;SDS011;70689;52.494;13.420;2023-07-09T14:47:48;6.25;;;4.72;;
81217;SDS011;70689;52.494;13.420;2023-07-09T14:50:15;6.20;;;4.60;;
81217;SDS011;70689;52.494;13.420;2023-07-09T14:52:42;5.97;;;4.65;;
81217;SDS011;70689;52.494;13.420;2023-07-09T14:55:18;5.75;;;4.18;;
81217;SDS011;70689;52.494;13.420;2023-07-09T14:57:46;6.28;;;4.35;;
81217;SDS011;70689;52.494;13.420;2023-07-09T15:00:15;4.97;;;4.30;;
81217;SDS011;70689;52.494;13.420;2023-07-09T15:02:43;6.38;;;4.68;;
81217;SDS011;70689;52.494;13.420;2023-07-09T15:05:20;6.78;;;5.40;;
81217;SDS011;70689;52.494;13.420;2023-07-09T15:07:48;6.03;;;5.28;;
81217;SDS011;70689;52.494;13.420;2023-07-09T15:10:15;9.82;;;5.35;;
81217;SDS011;70689;52.494;13.420;2023-07-09T15:12:48;4.70;;;3.90;;
81217;SDS011;70689;52.494;13.420;2023-07-09T15:17:42;5.70;;;4.30;;
81217;SDS011;70689;52.494;13.420;2023-07-09T15:20:18;7.20;;;4.22;;
81217;SDS011;70689;52.494;13.420;2023-07-09T15:22:48;10.65;;;4.93;;
81217;SDS011;70689;52.494;13.420;2023-07-09T15:25:15;7.80;;;4.68;;
81217;SDS011;70689;52.494;13.420;2023-07-09T15:30:15;9.40;;;4.93;;
81217;SDS011;70689;52.494;13.420;2023-07-09T15:32:47;8.55;;;6.75;;
81217;SDS011;70689;52.494;13.420;2023-07-09T15:35:15;8.07;;;5.55;;